Terminal Aerodrome Forecast
Issued by NWS Grand Forks, ND

Home | Current Version | Previous Version | Text Only | Print | Product List | Glossary On
Versions: 1 2 3 4 5 6 7 8 9 10 11 12 13
000
FTUS43 KFGF 251100 RRA
TAFGFK
TAF
KGFK 251141Z 2512/2612 28008KT P6SM SCT250
     FM251500 30013G18KT P6SM SCT250
     FM260000 23005KT P6SM SCT250=

USA.gov is the U.S. government's official web portal to all federal, state and local government web resources and services.